PASIPAKT

Guest
Details From PASI - SITKA ROCKY GUTIERREZ
To PAKT - KETCHIKAN INTL
Flight Number -
Tags generated
Created
Modified
Stats Distance 160 nm / 297 km
Max Altitude 13,000 ft / 3,962 m
Waypoints 3
Social Downloads 0
Likes 0
Share VATSIM

Download

Looking for another format? Having issues loading an existing format? Contact us
Advertisement - Login to hide

Notes

Basic altitude profile: - Ascent Rate: 2500ft/min - Ascent Speed: 250kts - Cruise Altitude: 35000ft - Cruise Speed: 420kts - Descent Rate: 1500ft/min - Descent Speed: 250kts Options: - Use NATs: yes - Use PACOTS: yes - Use low airways: yes - Use high airways: yes

Route

PASI TOKEE PAKT

ID Type Via Altitude Latitude Longitude Leg Dist Tot Dist Heading (true) Name
O PASI APT - 0 ft / 0 m 57.04713˚ -135.36160˚ - 0 nm - SITKA ROCKY GUTIERREZ
TOKEE FIX - 13,000 ft / 3,962 m 55.91250˚ -133.37881˚ 94 nm 94 nm 135° / 137° -
O PAKT APT - 0 ft / 0 m 55.35554˚ -131.71374˚ 65 nm 160 nm 120° / 121° KETCHIKAN INTL

Altitude Profile

Advertisement - Login to hide

PASI

Details ICAO PASI (SIT)
Name SITKA ROCKY GUTIERREZ
Region USA (Alaska)
Timezone America/Juneau (UTC-9.0)
Stats Elevation 21 ft / 6 m (AMSL)
Location 57.047128° -135.361597°
Runways 1
Magnetic Variation 18.751° E

METAR

PASI 150042Z 20014G21KT 4SM PL FEW018 BKN029 OVC048 07/04 A2996 RMK AO2 RAB39E42PLB42 P0002 T00670039

Decode

TAF

PASI 142325Z 1500/1524 20010G19KT 6SM -SHRA BKN020 OVC035 WS020/22030KT FM150300 20008KT P6SM -SHRA SCT025 OVC040 FM151300 16008KT P6SM VCSH SCT025 OVC050

Decode

Departure Runways

ID Width Length Bearing (true) Bearing (mag) Surface Threshold Offset Overrun Length
11 150 ft / 46 m 6,485 ft / 1,977 m 135.57° 116.82° Asphalt 0 ft / 0 m 0 ft / 0 m
29 150 ft / 46 m 6,485 ft / 1,977 m 315.59° 296.84° Asphalt 0 ft / 0 m 0 ft / 0 m

PAKT

Details ICAO PAKT (KTN)
Name KETCHIKAN INTL
Region USA (Alaska)
Timezone Unknown (UTC+0.0)
Stats Elevation 88 ft / 27 m (AMSL)
Location 55.355545° -131.713737°
Runways 1
Magnetic Variation 18.533° E

METAR

PAKT 142353Z 15006KT 10SM FEW016 BKN032 BKN080 08/06 A3008

Decode

TAF

PAKT 142334Z 1500/1524 14008KT P6SM -SHRA SCT015 BKN030 OVC040 TEMPO 1500/1504 3SM -SHRA BR BKN015 OVC030 FM150800 17010KT 6SM -SHRA BR BKN015 BKN025 OVC035 AMD LTD TO CLD VIS AND WIND 1506/1515

Decode

Destination Runways

ID Width Length Bearing (true) Bearing (mag) Surface Threshold Offset Overrun Length
11 150 ft / 46 m 7,485 ft / 2,281 m 135.66° 117.13° Asphalt 0 ft / 0 m 200 ft / 61 m
29 150 ft / 46 m 7,485 ft / 2,281 m 315.68° 297.15° Asphalt 0 ft / 0 m 100 ft / 30 m

Approach Navaids

Runway Type Ident Frequency Range Bearing (true) Bearing (mag) Slope Elevation
11 Localiser IECH 109.30 MHz 18 nm / 33 km 135.69° 117.15° - 66 ft / 20 m (AMSL)
11 Glidescope IECH 109.30 MHz 10 nm / 19 km 135.67° 117.14° 3.61° 76 ft / 23 m (AMSL)
11 DME IECH 109.30 MHz 18 nm / 33 km - - - 98 ft / 30 m (AMSL)

Popular Alternatives